createdAt,value
2023-04-15T00:01:04.117Z,100993.00
2023-04-15T00:03:30.912Z,100991.34
2023-04-15T00:06:02.040Z,100991.50
2023-04-15T00:08:29.962Z,100992.59
2023-04-15T00:10:56.506Z,100995.34
2023-04-15T00:13:26.304Z,101001.53
2023-04-15T00:15:52.730Z,100991.25
2023-04-15T00:18:19.117Z,100990.53
2023-04-15T00:20:48.370Z,100994.28
2023-04-15T00:23:17.888Z,100994.28
2023-04-15T00:25:44.880Z,100989.34
2023-04-15T00:28:15.186Z,100990.16
2023-04-15T00:30:41.663Z,100992.75
2023-04-15T00:33:08.578Z,100990.28
2023-04-15T00:35:44.619Z,100990.56
2023-04-15T00:38:11.528Z,100991.13
2023-04-15T00:40:41.556Z,100996.78
2023-04-15T00:43:11.133Z,100993.63
2023-04-15T00:45:38.692Z,100996.38
2023-04-15T00:48:11.727Z,100993.22
2023-04-15T00:50:38.290Z,100997.91
2023-04-15T00:55:48.647Z,101001.75
2023-04-15T00:58:18.398Z,101009.06
2023-04-15T01:00:47.374Z,101003.16
2023-04-15T01:03:15.513Z,101008.50
2023-04-15T01:05:45.980Z,101002.75
2023-04-15T01:08:16.865Z,101006.47
2023-04-15T01:10:46.566Z,101005.06
2023-04-15T01:13:15.788Z,101002.59
2023-04-15T01:15:42.719Z,101006.03
2023-04-15T01:18:13.278Z,101012.09
2023-04-15T01:20:49.205Z,101008.66
2023-04-15T01:23:16.907Z,101007.13
2023-04-15T01:25:47.003Z,100996.97
2023-04-15T01:28:16.914Z,101002.31
2023-04-15T01:30:51.154Z,101007.53
2023-04-15T01:33:17.637Z,101000.97
2023-04-15T01:35:50.944Z,101003.84
2023-04-15T01:38:20.085Z,101003.16
2023-04-15T01:40:46.424Z,101001.66
2023-04-15T01:43:13.284Z,100993.97
2023-04-15T01:45:39.656Z,100997.66
2023-04-15T01:48:07.029Z,101001.50
2023-04-15T01:50:33.501Z,101011.94
2023-04-15T01:53:08.914Z,101005.19
2023-04-15T01:55:35.359Z,101000.94
2023-04-15T02:00:48.300Z,101003.00
2023-04-15T02:03:14.714Z,101006.00
2023-04-15T02:05:41.122Z,100999.56
2023-04-15T02:08:10.665Z,101005.88
2023-04-15T02:10:39.907Z,101003.81
2023-04-15T02:13:13.685Z,101011.91
2023-04-15T02:16:00.390Z,101010.53
2023-04-15T02:18:27.177Z,101009.00
2023-04-15T02:23:36.712Z,101012.84
2023-04-15T02:26:03.094Z,101019.16
2023-04-15T02:28:29.514Z,101023.81
2023-04-15T02:30:57.781Z,101022.00
2023-04-15T02:33:27.113Z,101029.00
2023-04-15T02:35:53.690Z,101025.72
2023-04-15T02:38:20.266Z,101026.69
2023-04-15T02:40:49.833Z,101028.44
2023-04-15T02:43:19.458Z,101039.00
2023-04-15T02:45:48.846Z,101037.50
2023-04-15T02:48:21.379Z,101042.72
2023-04-15T02:50:48.222Z,101039.28
2023-04-15T02:53:22.279Z,101041.19
2023-04-15T02:55:48.680Z,101048.19
2023-04-15T02:58:15.285Z,101052.72
2023-04-15T03:00:41.911Z,101057.22
2023-04-15T03:03:12.046Z,101050.50
2023-04-15T03:05:39.520Z,101051.31
2023-04-15T03:08:11.823Z,101051.56
2023-04-15T03:10:38.215Z,101052.66
2023-04-15T03:13:07.368Z,101058.84
2023-04-15T03:15:36.946Z,101058.28
2023-04-15T03:18:05.693Z,101065.38
2023-04-15T03:20:32.067Z,101064.00
2023-04-15T03:23:01.250Z,101068.38
2023-04-15T03:25:27.632Z,101069.22
2023-04-15T03:27:58.317Z,101062.34
2023-04-15T03:30:24.763Z,101065.78
2023-04-15T03:32:51.610Z,101064.94
2023-04-15T03:35:18.300Z,101063.69
2023-04-15T03:37:51.818Z,101068.91
2023-04-15T03:40:42.647Z,101072.56
2023-04-15T03:43:12.323Z,101074.38
2023-04-15T03:45:38.794Z,101073.66
2023-04-15T03:48:16.432Z,101085.03
2023-04-15T03:50:52.133Z,101082.69
2023-04-15T03:53:22.624Z,101092.53
2023-04-15T03:55:50.648Z,101095.28
2023-04-15T03:58:19.383Z,101093.50
2023-04-15T04:00:45.832Z,101101.31
2023-04-15T04:03:12.824Z,101091.84
2023-04-15T04:05:45.189Z,101095.41
2023-04-15T04:08:15.333Z,101104.41
2023-04-15T04:10:42.771Z,101115.91
2023-04-15T04:13:09.162Z,101115.34
2023-04-15T04:15:35.665Z,101118.06
2023-04-15T04:18:10.577Z,101113.06
2023-04-15T04:20:37.143Z,101116.78
2023-04-15T04:23:07.467Z,101119.25
2023-04-15T04:25:37.586Z,101124.00
2023-04-15T04:28:04.409Z,101120.81
2023-04-15T04:30:34.612Z,101126.97
2023-04-15T04:33:01.130Z,101130.53
2023-04-15T04:35:27.667Z,101139.41
2023-04-15T04:37:58.148Z,101141.31
2023-04-15T04:40:24.589Z,101138.81
2023-04-15T04:42:51.005Z,101152.56
2023-04-15T04:45:19.068Z,101151.84
2023-04-15T04:47:48.225Z,101156.13
2023-04-15T04:50:14.764Z,101162.97
2023-04-15T04:52:46.465Z,101165.44
2023-04-15T04:55:13.199Z,101171.63
2023-04-15T04:57:39.709Z,101179.31
2023-04-15T05:00:16.399Z,101169.00
2023-04-15T05:02:44.137Z,101180.00
2023-04-15T05:05:13.053Z,101183.31
2023-04-15T05:07:42.694Z,101187.56
2023-04-15T05:10:10.868Z,101193.34
2023-04-15T05:12:38.926Z,101188.59
2023-04-15T05:15:09.605Z,101204.59
2023-04-15T05:17:39.740Z,101202.91
2023-04-15T05:20:09.653Z,101208.00
2023-04-15T05:22:39.844Z,101204.31
2023-04-15T05:25:08.658Z,101206.13
2023-04-15T05:27:35.121Z,101211.09
2023-04-15T05:30:16.196Z,101214.09
2023-04-15T05:32:45.660Z,101221.47
2023-04-15T05:35:16.155Z,101219.50
2023-04-15T05:37:42.544Z,101226.34
2023-04-15T05:40:11.657Z,101230.91
2023-04-15T05:42:41.256Z,101236.44
2023-04-15T05:45:16.926Z,101231.88
2023-04-15T05:47:43.339Z,101239.50
2023-04-15T05:50:10.216Z,101244.31
2023-04-15T05:52:41.080Z,101254.19
2023-04-15T05:55:07.816Z,101254.09
2023-04-15T05:57:34.201Z,101256.22
2023-04-15T06:00:04.801Z,101260.06
2023-04-15T06:02:31.569Z,101255.78
2023-04-15T06:04:58.210Z,101269.69
2023-04-15T06:07:32.968Z,101268.88
2023-04-15T06:09:59.285Z,101268.69
2023-04-15T06:12:31.748Z,101274.47
2023-04-15T06:15:01.325Z,101278.06
2023-04-15T06:17:31.193Z,101281.63
2023-04-15T06:20:00.197Z,101286.00
2023-04-15T06:22:27.685Z,101294.13
2023-04-15T06:24:59.989Z,101293.44
2023-04-15T06:27:26.338Z,101293.88
2023-04-15T06:29:52.752Z,101307.50
2023-04-15T06:32:23.332Z,101306.69
2023-04-15T06:34:49.714Z,101312.22
2023-04-15T06:37:16.465Z,101314.66
2023-04-15T06:39:43.883Z,101309.03
2023-04-15T06:42:13.982Z,101317.59
2023-04-15T06:44:40.691Z,101323.47
2023-04-15T06:47:10.284Z,101329.56
2023-04-15T06:49:40.407Z,101332.47
2023-04-15T06:54:47.134Z,101345.44
2023-04-15T06:57:21.474Z,101351.47
2023-04-15T06:59:47.882Z,101352.72
2023-04-15T07:02:20.977Z,101360.78
2023-04-15T07:04:47.623Z,101367.00
2023-04-15T07:07:22.627Z,101361.47
2023-04-15T07:09:53.679Z,101365.22
2023-04-15T07:12:20.764Z,101363.94
2023-04-15T07:14:53.412Z,101373.97
2023-04-15T07:17:19.797Z,101371.34
2023-04-15T07:19:49.933Z,101383.88
2023-04-15T07:22:16.983Z,101388.03
2023-04-15T07:24:43.367Z,101384.84
2023-04-15T07:27:13.776Z,101391.81
2023-04-15T07:29:43.119Z,101391.66
2023-04-15T07:32:18.155Z,101398.59
2023-04-15T07:34:44.847Z,101397.88
2023-04-15T07:37:11.519Z,101402.19
2023-04-15T07:39:42.653Z,101403.47
2023-04-15T07:42:09.505Z,101407.53
2023-04-15T07:44:36.230Z,101402.22
2023-04-15T07:47:06.924Z,101417.91
2023-04-15T07:49:33.375Z,101412.19
2023-04-15T07:52:00.110Z,101423.94
2023-04-15T07:54:30.090Z,101423.06
2023-04-15T07:56:56.456Z,101418.84
2023-04-15T07:59:22.874Z,101427.09
2023-04-15T08:01:50.273Z,101417.72
2023-04-15T08:04:24.607Z,101429.34
2023-04-15T08:06:57.959Z,101434.22
2023-04-15T08:09:24.300Z,101428.22
2023-04-15T08:11:53.642Z,101440.34
2023-04-15T08:14:20.707Z,101436.59
2023-04-15T08:16:49.883Z,101445.06
2023-04-15T08:19:16.629Z,101439.00
2023-04-15T08:21:45.908Z,101452.50
2023-04-15T08:24:12.909Z,101443.91
2023-04-15T08:26:39.247Z,101445.66
2023-04-15T08:29:14.003Z,101458.03
2023-04-15T08:31:40.538Z,101449.19
2023-04-15T08:34:12.338Z,101476.00
2023-04-15T08:36:43.152Z,101459.53
2023-04-15T08:42:08.531Z,101469.28
2023-04-15T08:44:45.908Z,101473.66
2023-04-15T08:47:14.892Z,101472.28
2023-04-15T08:49:45.485Z,101483.31
2023-04-15T08:52:12.345Z,101489.91
2023-04-15T08:54:42.452Z,101516.69
2023-04-15T08:57:12.658Z,101494.56
2023-04-15T08:59:41.877Z,101514.31
2023-04-15T09:02:09.256Z,101491.81
2023-04-15T09:04:35.662Z,101504.56
2023-04-15T09:07:02.075Z,101512.28
2023-04-15T09:09:32.630Z,101508.56
2023-04-15T09:12:02.266Z,101507.97
2023-04-15T09:17:16.500Z,101516.81
2023-04-15T09:19:46.032Z,101526.34
2023-04-15T09:25:22.640Z,101537.72
2023-04-15T09:27:50.409Z,101529.97
2023-04-15T09:30:24.959Z,101531.53
2023-04-15T09:32:55.683Z,101537.00
2023-04-15T09:38:14.539Z,101552.97
2023-04-15T09:40:42.477Z,101540.66
2023-04-15T09:43:20.759Z,101538.06
2023-04-15T09:46:14.246Z,101531.38
2023-04-15T09:48:40.781Z,101547.63
2023-04-15T09:51:07.168Z,101545.50
2023-04-15T09:53:39.503Z,101541.81
2023-04-15T09:56:10.577Z,101547.03
2023-04-15T09:58:41.625Z,101543.69
2023-04-15T10:01:09.177Z,101555.25
2023-04-15T10:03:37.454Z,101559.34
2023-04-15T10:06:09.447Z,101563.88
2023-04-15T10:08:35.801Z,101569.72
2023-04-15T10:11:06.838Z,101570.09
2023-04-15T10:13:38.025Z,101561.84
2023-04-15T10:16:29.478Z,101573.06
2023-04-15T10:19:02.308Z,101579.91
2023-04-15T10:21:31.078Z,101582.06
2023-04-15T10:24:03.282Z,101578.59
2023-04-15T10:26:33.286Z,101588.00
2023-04-15T10:29:04.740Z,101570.25
2023-04-15T10:31:31.717Z,101569.59
2023-04-15T10:34:06.812Z,101567.31
2023-04-15T10:36:33.458Z,101582.63
2023-04-15T10:39:02.370Z,101583.44
2023-04-15T10:41:34.393Z,101581.47
2023-04-15T10:44:05.422Z,101575.22
2023-04-15T10:46:40.410Z,101592.03
2023-04-15T10:49:24.114Z,101591.88
2023-04-15T10:51:59.735Z,101594.16
2023-04-15T10:54:31.778Z,101603.41
2023-04-15T10:57:03.961Z,101601.91
2023-04-15T10:59:41.830Z,101609.16
2023-04-15T11:02:08.681Z,101606.19
2023-04-15T11:04:56.179Z,101605.72
2023-04-15T11:07:49.856Z,101607.03
2023-04-15T11:13:32.227Z,101610.81
2023-04-15T11:16:20.153Z,101605.38
2023-04-15T11:18:55.753Z,101605.88
2023-04-15T11:21:27.878Z,101620.88
2023-04-15T11:23:57.044Z,101609.31
2023-04-15T11:26:29.350Z,101617.72
2023-04-15T11:28:59.709Z,101623.47
2023-04-15T11:34:22.910Z,101622.00
2023-04-15T11:36:56.685Z,101615.22
2023-04-15T11:39:25.965Z,101616.84
2023-04-15T11:41:54.931Z,101622.97
2023-04-15T11:44:21.533Z,101621.16
2023-04-15T11:46:47.920Z,101620.63
2023-04-15T11:49:31.201Z,101623.66
2023-04-15T11:51:58.092Z,101615.63
2023-04-15T11:54:27.143Z,101633.34
2023-04-15T11:56:57.312Z,101653.41
2023-04-15T11:59:28.149Z,101656.91
2023-04-15T12:02:17.856Z,101637.06
2023-04-15T12:04:44.426Z,101651.59
2023-04-15T12:07:14.500Z,101639.84
2023-04-15T12:09:41.207Z,101659.03
2023-04-15T12:12:07.992Z,101646.63
2023-04-15T12:14:42.787Z,101663.97
2023-04-15T12:17:10.624Z,101661.47
2023-04-15T12:19:41.423Z,101663.09
2023-04-15T12:22:13.318Z,101662.50
2023-04-15T12:24:51.551Z,101668.22
2023-04-15T12:27:17.959Z,101652.88
2023-04-15T12:29:45.070Z,101672.22
2023-04-15T12:32:16.254Z,101703.59
2023-04-15T12:34:49.942Z,101685.94
2023-04-15T12:37:19.494Z,101687.28
2023-04-15T12:39:52.413Z,101687.47
2023-04-15T12:42:22.551Z,101695.03
2023-04-15T12:44:48.997Z,101688.13
2023-04-15T12:47:18.480Z,101682.50
2023-04-15T12:49:49.540Z,101693.34
2023-04-15T12:52:19.082Z,101734.63
2023-04-15T12:54:48.430Z,101710.69
2023-04-15T12:57:22.134Z,101716.81
2023-04-15T12:59:51.410Z,101727.03
2023-04-15T13:02:26.485Z,101717.66
2023-04-15T13:04:52.984Z,101716.47
2023-04-15T13:07:19.437Z,101717.94
2023-04-15T13:09:48.555Z,101724.06
2023-04-15T13:12:17.715Z,101722.44
2023-04-15T13:14:44.215Z,101739.38
2023-04-15T13:17:15.620Z,101739.19
2023-04-15T13:19:42.577Z,101739.84
2023-04-15T13:22:09.149Z,101765.75
2023-04-15T13:24:38.558Z,101757.75
2023-04-15T13:27:08.288Z,101759.78
2023-04-15T13:29:35.828Z,101765.63
2023-04-15T13:32:09.819Z,101768.69
2023-04-15T13:34:36.203Z,101770.09
2023-04-15T13:37:11.678Z,101772.16
2023-04-15T13:39:38.165Z,101775.66
2023-04-15T13:42:07.926Z,101782.41
2023-04-15T13:44:37.149Z,101780.22
2023-04-15T13:47:03.916Z,101784.22
2023-04-15T13:49:33.472Z,101791.81
2023-04-15T13:51:59.865Z,101801.34
2023-04-15T13:54:37.875Z,101793.72
2023-04-15T13:57:06.776Z,101801.66
2023-04-15T13:59:47.573Z,101800.41
2023-04-15T14:02:16.358Z,101810.00
2023-04-15T14:04:45.632Z,101795.59
2023-04-15T14:07:11.948Z,101819.84
2023-04-15T14:09:43.610Z,101799.03
2023-04-15T14:12:13.139Z,101801.81
2023-04-15T14:14:46.905Z,101815.94
2023-04-15T14:17:16.278Z,101815.88
2023-04-15T14:19:42.676Z,101829.19
2023-04-15T14:22:11.990Z,101826.81
2023-04-15T14:24:38.309Z,101829.44
2023-04-15T14:27:04.741Z,101881.78
2023-04-15T14:29:40.207Z,101843.19
2023-04-15T14:32:12.090Z,101844.88
2023-04-15T14:34:42.933Z,101846.69
2023-04-15T14:37:09.330Z,101839.84
2023-04-15T14:39:42.398Z,101851.22
2023-04-15T14:42:08.753Z,101875.94
2023-04-15T14:44:35.427Z,101864.47
2023-04-15T14:47:04.814Z,101865.84
2023-04-15T14:49:34.989Z,101876.75
2023-04-15T14:52:04.690Z,101876.31
2023-04-15T14:54:31.035Z,101876.47
2023-04-15T14:56:57.704Z,101886.69
2023-04-15T14:59:24.070Z,101880.75
2023-04-15T15:01:53.191Z,101898.34
2023-04-15T15:04:23.051Z,101895.59
2023-04-15T15:06:52.102Z,101896.03
2023-04-15T15:09:19.976Z,101896.72
2023-04-15T15:11:50.939Z,101908.31
2023-04-15T15:14:21.768Z,101901.84
2023-04-15T15:16:48.558Z,101901.69
2023-04-15T15:19:14.936Z,101905.56
2023-04-15T15:21:49.828Z,101918.44
2023-04-15T15:24:16.333Z,101914.94
2023-04-15T15:26:45.035Z,101925.16
2023-04-15T15:29:18.660Z,101918.84
2023-04-15T15:31:47.623Z,101933.91
2023-04-15T15:34:19.429Z,101930.44
2023-04-15T15:36:48.466Z,101927.25
2023-04-15T15:39:16.283Z,101936.94
2023-04-15T15:41:42.633Z,101936.59
2023-04-15T15:44:09.025Z,101938.25
2023-04-15T15:49:21.575Z,101944.22
2023-04-15T15:51:49.766Z,101949.72
2023-04-15T15:54:16.114Z,101946.97
2023-04-15T15:56:43.475Z,101954.31
2023-04-15T15:59:12.852Z,101953.16
2023-04-15T16:01:39.998Z,101952.72
2023-04-15T16:04:09.438Z,101952.47
2023-04-15T16:06:39.015Z,101965.72
2023-04-15T16:09:12.695Z,101952.34
2023-04-15T16:11:41.803Z,101971.72
2023-04-15T16:14:10.510Z,101980.09
2023-04-15T16:16:41.495Z,101986.25
2023-04-15T16:19:07.861Z,101988.44
2023-04-15T16:24:23.120Z,101969.91
2023-04-15T16:26:53.529Z,102000.63
2023-04-15T16:29:22.876Z,101993.03
2023-04-15T16:31:52.552Z,102001.34
2023-04-15T16:34:22.079Z,102008.38
2023-04-15T16:36:48.757Z,102010.22
2023-04-15T16:39:19.183Z,102005.88
2023-04-15T16:41:51.674Z,102027.63
2023-04-15T16:44:20.940Z,102019.56
2023-04-15T16:46:51.875Z,102010.19
2023-04-15T16:49:20.404Z,102010.41
2023-04-15T16:51:47.004Z,102017.28
2023-04-15T16:56:58.814Z,102023.41
2023-04-15T16:59:28.400Z,102021.25
2023-04-15T17:01:55.530Z,102033.84
2023-04-15T17:04:25.798Z,102027.25
2023-04-15T17:06:52.246Z,102032.59
2023-04-15T17:09:18.780Z,102037.13
2023-04-15T17:11:47.915Z,102022.25
2023-04-15T17:14:17.160Z,102043.75
2023-04-15T17:16:43.694Z,102028.53
2023-04-15T17:19:13.211Z,102038.19
2023-04-15T17:21:42.394Z,102034.16
2023-04-15T17:24:14.088Z,102040.78
2023-04-15T17:26:47.116Z,102053.06
2023-04-15T17:29:16.832Z,102061.44
2023-04-15T17:31:46.243Z,102049.03
2023-04-15T17:34:14.603Z,102032.06
2023-04-15T17:36:42.203Z,102055.84
2023-04-15T17:39:11.903Z,102055.84
2023-04-15T17:41:38.318Z,102050.13
2023-04-15T17:44:07.039Z,102065.34
2023-04-15T17:46:36.845Z,102060.59
2023-04-15T17:49:09.241Z,102076.78
2023-04-15T17:51:38.631Z,102074.91
2023-04-15T17:54:05.700Z,102078.56
2023-04-15T17:56:33.992Z,102062.16
2023-04-15T17:59:03.467Z,102083.94
2023-04-15T18:01:32.455Z,102085.13
2023-04-15T18:03:59.368Z,102097.00
2023-04-15T18:06:27.113Z,102090.72
2023-04-15T18:08:53.543Z,102122.13
2023-04-15T18:11:19.914Z,102087.38
2023-04-15T18:13:48.798Z,102109.38
2023-04-15T18:16:15.343Z,102093.09
2023-04-15T18:18:44.316Z,102091.66
2023-04-15T18:21:13.854Z,102102.84
2023-04-15T18:23:40.572Z,102097.97
2023-04-15T18:26:09.783Z,102096.53
2023-04-15T18:28:39.792Z,102112.03
2023-04-15T18:31:06.537Z,102112.94
2023-04-15T18:33:36.283Z,102119.63
2023-04-15T18:36:03.051Z,102119.97
2023-04-15T18:38:29.403Z,102119.50
2023-04-15T18:40:59.449Z,102125.22
2023-04-15T18:43:28.688Z,102123.41
2023-04-15T18:45:55.137Z,102133.06
2023-04-15T18:48:24.279Z,102126.63
2023-04-15T18:50:54.131Z,102127.47
2023-04-15T18:56:07.378Z,102140.13
2023-04-15T18:59:09.858Z,102155.09
2023-04-15T19:01:26.456Z,102150.00
2023-04-15T19:03:59.647Z,102156.78
2023-04-15T19:06:27.443Z,102159.72
2023-04-15T19:09:00.585Z,102170.19
2023-04-15T19:11:26.997Z,102158.41
2023-04-15T19:13:59.263Z,102160.69
2023-04-15T19:16:28.577Z,102161.53
2023-04-15T19:19:02.555Z,102165.56
2023-04-15T19:21:30.496Z,102162.03
2023-04-15T19:24:05.392Z,102160.97
2023-04-15T19:26:31.908Z,102164.63
2023-04-15T19:28:58.949Z,102166.63
2023-04-15T19:31:29.489Z,102175.41
2023-04-15T19:33:56.691Z,102169.50
2023-04-15T19:36:23.249Z,102192.63
2023-04-15T19:38:53.649Z,102182.06
2023-04-15T19:41:23.132Z,102182.19
2023-04-15T19:43:52.034Z,102181.09
2023-04-15T19:46:18.814Z,102169.72
2023-04-15T19:48:45.330Z,102187.91
2023-04-15T19:51:11.878Z,102188.25
2023-04-15T19:53:38.677Z,102181.09
2023-04-15T19:56:07.634Z,102186.09
2023-04-15T19:58:34.009Z,102193.25
2023-04-15T20:01:05.346Z,102192.28
2023-04-15T20:03:34.938Z,102197.28
2023-04-15T20:06:01.389Z,102202.75
2023-04-15T20:08:30.862Z,102192.41
2023-04-15T20:10:57.253Z,102188.50
2023-04-15T20:13:23.672Z,102197.41
2023-04-15T20:15:52.807Z,102193.94
2023-04-15T20:18:22.104Z,102196.34
2023-04-15T20:20:48.543Z,102193.94
2023-04-15T20:23:17.415Z,102188.03
2023-04-15T20:25:46.879Z,102194.06
2023-04-15T20:28:13.330Z,102196.44
2023-04-15T20:30:43.300Z,102196.69
2023-04-15T20:33:13.919Z,102205.25
2023-04-15T20:35:50.738Z,102203.72
2023-04-15T20:38:17.150Z,102207.88
2023-04-15T20:40:49.897Z,102202.63
2023-04-15T20:43:16.381Z,102208.09
2023-04-15T20:45:42.871Z,102194.19
2023-04-15T20:48:10.247Z,102200.25
2023-04-15T20:50:40.352Z,102202.63
2023-04-15T20:53:06.705Z,102216.44
2023-04-15T20:55:42.308Z,102208.94
2023-04-15T20:58:09.013Z,102205.59
2023-04-15T21:00:40.129Z,102206.78
2023-04-15T21:03:11.823Z,102205.72
2023-04-15T21:05:38.422Z,102214.41
2023-04-15T21:08:14.228Z,102211.78
2023-04-15T21:10:44.088Z,102214.50
2023-04-15T21:13:17.637Z,102225.41
2023-04-15T21:15:54.794Z,102211.50
2023-04-15T21:18:22.187Z,102217.44
2023-04-15T21:20:59.473Z,102214.72
2023-04-15T21:23:28.677Z,102217.72
2023-04-15T21:25:55.962Z,102213.31
2023-04-15T21:28:23.244Z,102224.00
2023-04-15T21:30:49.949Z,102226.63
2023-04-15T21:33:21.091Z,102220.78
2023-04-15T21:35:53.563Z,102221.41
2023-04-15T21:38:23.533Z,102227.25
2023-04-15T21:40:50.700Z,102230.56
2023-04-15T21:43:19.648Z,102226.28
2023-04-15T21:46:23.229Z,102225.31
2023-04-15T21:48:38.427Z,102227.47
2023-04-15T21:51:06.385Z,102220.44
2023-04-15T21:53:35.322Z,102224.50
2023-04-15T21:56:01.698Z,102224.28
2023-04-15T21:58:35.249Z,102242.69
2023-04-15T22:01:01.910Z,102245.66
2023-04-15T22:03:37.720Z,102245.16
2023-04-15T22:06:04.354Z,102245.66
2023-04-15T22:08:48.329Z,102257.53
2023-04-15T22:11:26.569Z,102248.63
2023-04-15T22:13:54.126Z,102255.78
2023-04-15T22:16:21.592Z,102253.75
2023-04-15T22:18:51.311Z,102245.09
2023-04-15T22:21:17.685Z,102245.63
2023-04-15T22:23:49.437Z,102251.66
2023-04-15T22:26:15.831Z,102248.22
2023-04-15T22:28:42.290Z,102253.34
2023-04-15T22:31:11.684Z,102251.31
2023-04-15T22:33:40.901Z,102257.28
2023-04-15T22:36:09.397Z,102263.13
2023-04-15T22:38:45.943Z,102258.81
2023-04-15T22:41:14.481Z,102265.50
2023-04-15T22:43:40.959Z,102262.16
2023-04-15T22:46:07.387Z,102264.78
2023-04-15T22:48:34.744Z,102269.88
2023-04-15T22:51:08.569Z,102261.44
2023-04-15T22:53:35.025Z,102261.22
2023-04-15T22:56:02.947Z,102264.44
2023-04-15T22:58:33.648Z,102265.16
2023-04-15T23:01:00.148Z,102269.53
2023-04-15T23:03:38.998Z,102283.22
2023-04-15T23:06:21.659Z,102277.88
2023-04-15T23:08:50.890Z,102287.63
2023-04-15T23:11:21.843Z,102278.22
2023-04-15T23:13:48.264Z,102286.81
2023-04-15T23:16:18.513Z,102287.63
2023-04-15T23:18:48.076Z,102289.44
2023-04-15T23:21:15.615Z,102291.19
2023-04-15T23:23:42.682Z,102294.66
2023-04-15T23:26:12.285Z,102300.81
2023-04-15T23:28:50.166Z,102291.94
2023-04-15T23:31:16.597Z,102282.38
2023-04-15T23:33:45.596Z,102299.78
2023-04-15T23:36:15.910Z,102302.50
2023-04-15T23:38:42.504Z,102289.53
2023-04-15T23:41:12.751Z,102294.66
2023-04-15T23:43:41.943Z,102300.13
2023-04-15T23:46:08.620Z,102306.16
2023-04-15T23:48:44.824Z,102305.34
2023-04-15T23:51:12.740Z,102299.28
2023-04-15T23:53:40.523Z,102306.16
2023-04-15T23:56:07.198Z,102300.13
2023-04-15T23:58:34.588Z,102308.78
